createdAt,value
2023-09-08T00:00:10.422Z,19.62
2023-09-08T00:02:37.769Z,19.63
2023-09-08T00:05:05.237Z,19.48
2023-09-08T00:07:32.444Z,19.49
2023-09-08T00:09:59.710Z,19.43
2023-09-08T00:12:26.949Z,19.37
2023-09-08T00:14:54.117Z,19.34
2023-09-08T00:17:21.336Z,19.28
2023-09-08T00:19:48.646Z,19.27
2023-09-08T00:22:15.768Z,19.18
2023-09-08T00:24:43.053Z,19.17
2023-09-08T00:27:10.955Z,19.19
2023-09-08T00:29:38.186Z,19.21
2023-09-08T00:32:05.756Z,19.12
2023-09-08T00:34:33.289Z,19.13
2023-09-08T00:37:05.980Z,19.11
2023-09-08T00:39:33.283Z,19.07
2023-09-08T00:42:00.564Z,19.01
2023-09-08T00:44:27.737Z,18.99
2023-09-08T00:46:55.061Z,18.97
2023-09-08T00:49:22.669Z,18.96
2023-09-08T00:51:49.994Z,18.88
2023-09-08T00:54:17.388Z,18.90
2023-09-08T00:56:47.910Z,18.88
2023-09-08T00:59:15.209Z,18.81
2023-09-08T01:01:42.567Z,18.76
2023-09-08T01:04:09.990Z,18.78
2023-09-08T01:06:38.491Z,18.83
2023-09-08T01:09:06.506Z,18.76
2023-09-08T01:11:33.845Z,18.76
2023-09-08T01:14:01.105Z,18.77
2023-09-08T01:16:28.458Z,18.72
2023-09-08T01:18:57.946Z,18.70
2023-09-08T01:21:37.401Z,18.69
2023-09-08T01:24:33.657Z,18.71
2023-09-08T01:27:01.290Z,18.70
2023-09-08T01:29:31.117Z,18.70
2023-09-08T01:31:58.675Z,18.68
2023-09-08T01:34:26.059Z,18.66
2023-09-08T01:36:53.512Z,18.62
2023-09-08T01:39:20.797Z,18.59
2023-09-08T01:41:47.931Z,18.59
2023-09-08T01:44:15.095Z,18.57
2023-09-08T01:46:42.427Z,18.48
2023-09-08T01:49:09.632Z,18.45
2023-09-08T01:51:36.870Z,18.40
2023-09-08T01:54:04.220Z,18.44
2023-09-08T01:56:31.346Z,18.43
2023-09-08T01:58:58.540Z,18.38
2023-09-08T02:01:25.744Z,18.39
2023-09-08T02:03:52.922Z,18.39
2023-09-08T02:06:20.171Z,18.32
2023-09-08T02:08:47.305Z,18.32
2023-09-08T02:11:14.563Z,18.27
2023-09-08T02:13:43.547Z,18.26
2023-09-08T02:16:17.643Z,18.24
2023-09-08T02:18:46.052Z,18.19
2023-09-08T02:21:13.372Z,18.21
2023-09-08T02:23:40.547Z,18.15
2023-09-08T02:26:07.777Z,18.12
2023-09-08T02:28:35.213Z,18.10
2023-09-08T02:31:02.736Z,18.07
2023-09-08T02:33:30.007Z,18.00
2023-09-08T02:36:03.352Z,17.93
2023-09-08T02:38:30.726Z,17.91
2023-09-08T02:40:58.082Z,17.90
2023-09-08T02:43:25.338Z,17.88
2023-09-08T02:45:52.694Z,17.81
2023-09-08T02:48:20.106Z,17.81
2023-09-08T02:50:47.265Z,17.82
2023-09-08T02:53:14.482Z,17.81
2023-09-08T02:55:41.815Z,17.73
2023-09-08T02:58:09.062Z,17.64
2023-09-08T03:00:36.421Z,17.69
2023-09-08T03:03:04.582Z,17.60
2023-09-08T03:05:33.211Z,17.60
2023-09-08T03:08:00.590Z,17.58
2023-09-08T03:10:29.701Z,17.53
2023-09-08T03:12:57.063Z,17.37
2023-09-08T03:15:24.299Z,17.36
2023-09-08T03:17:51.591Z,17.36
2023-09-08T03:20:18.763Z,17.39
2023-09-08T03:22:45.884Z,17.36
2023-09-08T03:25:15.550Z,17.33
2023-09-08T03:27:42.727Z,17.36
2023-09-08T03:30:10.283Z,17.35
2023-09-08T03:32:39.132Z,17.32
2023-09-08T03:35:10.472Z,17.36
2023-09-08T03:37:37.800Z,17.33
2023-09-08T03:40:08.378Z,17.36
2023-09-08T03:42:36.062Z,17.37
2023-09-08T03:45:03.369Z,17.39
2023-09-08T03:47:30.828Z,17.33
2023-09-08T03:49:58.063Z,17.39
2023-09-08T03:52:25.921Z,17.36
2023-09-08T03:54:53.177Z,17.31
2023-09-08T03:57:20.360Z,17.34
2023-09-08T03:59:50.748Z,17.35
2023-09-08T04:02:18.099Z,17.36
2023-09-08T04:04:45.275Z,17.35
2023-09-08T04:07:12.706Z,17.33
2023-09-08T04:09:40.096Z,17.33
2023-09-08T04:12:10.448Z,17.31
2023-09-08T04:14:37.918Z,17.21
2023-09-08T04:17:05.301Z,17.20
2023-09-08T04:19:33.441Z,17.18
2023-09-08T04:22:00.754Z,17.20
2023-09-08T04:24:28.114Z,17.13
2023-09-08T04:26:55.277Z,17.14
2023-09-08T04:29:22.625Z,17.13
2023-09-08T04:31:49.848Z,17.08
2023-09-08T04:34:17.089Z,17.02
2023-09-08T04:36:44.196Z,17.13
2023-09-08T04:39:12.719Z,17.13
2023-09-08T04:41:40.148Z,17.10
2023-09-08T04:44:07.359Z,17.05
2023-09-08T04:46:36.954Z,16.93
2023-09-08T04:49:04.111Z,16.97
2023-09-08T04:51:31.371Z,16.88
2023-09-08T04:53:58.500Z,16.84
2023-09-08T04:56:25.740Z,16.82
2023-09-08T04:58:53.813Z,16.78
2023-09-08T05:01:20.984Z,16.72
2023-09-08T05:03:48.450Z,16.70
2023-09-08T05:06:15.732Z,16.70
2023-09-08T05:08:43.087Z,16.73
2023-09-08T05:11:10.403Z,16.68
2023-09-08T05:13:37.538Z,16.80
2023-09-08T05:16:12.989Z,16.73
2023-09-08T05:18:41.132Z,16.72
2023-09-08T05:21:08.963Z,16.80
2023-09-08T05:23:36.112Z,16.82
2023-09-08T05:26:03.323Z,16.84
2023-09-08T05:28:30.590Z,16.90
2023-09-08T05:30:58.071Z,16.90
2023-09-08T05:33:25.443Z,16.92
2023-09-08T05:35:52.742Z,16.94
2023-09-08T05:38:20.117Z,16.91
2023-09-08T05:40:47.428Z,16.99
2023-09-08T05:43:14.672Z,17.00
2023-09-08T05:45:42.023Z,17.08
2023-09-08T05:48:09.379Z,17.20
2023-09-08T05:50:37.773Z,17.19
2023-09-08T05:53:05.221Z,17.19
2023-09-08T05:55:32.554Z,17.19
2023-09-08T05:57:59.919Z,17.19
2023-09-08T06:00:27.479Z,17.43
2023-09-08T06:02:54.867Z,17.49
2023-09-08T06:05:22.090Z,17.59
2023-09-08T06:08:04.649Z,17.60
2023-09-08T06:10:34.223Z,17.70
2023-09-08T06:13:02.751Z,17.71
2023-09-08T06:15:30.145Z,17.84
2023-09-08T06:17:57.546Z,17.73
2023-09-08T06:20:26.158Z,17.93
2023-09-08T06:22:53.329Z,17.99
2023-09-08T06:25:20.532Z,18.07
2023-09-08T06:27:47.873Z,18.17
2023-09-08T06:30:17.324Z,18.19
2023-09-08T06:32:44.856Z,18.28
2023-09-08T06:35:12.216Z,18.31
2023-09-08T06:37:40.281Z,18.48
2023-09-08T06:40:08.124Z,18.56
2023-09-08T06:42:35.452Z,18.69
2023-09-08T06:45:03.153Z,18.73
2023-09-08T06:47:30.480Z,18.81
2023-09-08T06:49:57.709Z,18.85
2023-09-08T06:52:25.567Z,18.85
2023-09-08T06:54:52.894Z,18.96
2023-09-08T06:57:23.140Z,19.05
2023-09-08T06:59:50.492Z,19.08
2023-09-08T07:02:17.974Z,19.13
2023-09-08T07:04:45.356Z,19.16
2023-09-08T07:07:12.683Z,19.05
2023-09-08T07:09:40.989Z,19.19
2023-09-08T07:12:08.195Z,19.32
2023-09-08T07:14:35.772Z,19.43
2023-09-08T07:17:03.224Z,19.41
2023-09-08T07:19:30.631Z,19.45
2023-09-08T07:21:57.957Z,19.62
2023-09-08T07:24:25.410Z,19.79
2023-09-08T07:26:52.564Z,19.88
2023-09-08T07:29:19.745Z,19.97
2023-09-08T07:31:47.127Z,20.02
2023-09-08T07:34:14.294Z,20.10
2023-09-08T07:36:41.587Z,20.24
2023-09-08T07:39:08.808Z,20.39
2023-09-08T07:41:36.165Z,20.50
2023-09-08T07:44:03.717Z,20.57
2023-09-08T07:46:31.047Z,20.67
2023-09-08T07:48:59.723Z,20.78
2023-09-08T07:51:28.214Z,20.83
2023-09-08T07:53:55.433Z,20.83
2023-09-08T07:56:23.372Z,21.02
2023-09-08T07:58:50.752Z,20.94
2023-09-08T08:01:17.960Z,21.07
2023-09-08T08:03:45.255Z,21.23
2023-09-08T08:06:12.478Z,21.15
2023-09-08T08:08:40.245Z,21.22
2023-09-08T08:11:12.811Z,21.42
2023-09-08T08:13:40.086Z,21.53
2023-09-08T08:16:07.652Z,21.67
2023-09-08T08:18:35.404Z,21.71
2023-09-08T08:21:04.576Z,21.87
2023-09-08T08:23:32.690Z,21.94
2023-09-08T08:26:01.254Z,22.16
2023-09-08T08:28:28.482Z,22.32
2023-09-08T08:30:57.147Z,22.38
2023-09-08T08:33:27.103Z,22.47
2023-09-08T08:35:54.808Z,22.55
2023-09-08T08:38:22.333Z,22.67
2023-09-08T08:40:49.665Z,22.71
2023-09-08T08:43:16.993Z,22.90
2023-09-08T08:45:45.911Z,23.01
2023-09-08T08:48:15.483Z,23.17
2023-09-08T08:50:45.464Z,23.26
2023-09-08T08:53:13.991Z,23.37
2023-09-08T08:55:41.926Z,23.51
2023-09-08T08:58:09.456Z,23.64
2023-09-08T09:00:40.269Z,23.74
2023-09-08T09:03:15.576Z,23.85
2023-09-08T09:05:48.159Z,24.00
2023-09-08T09:08:19.820Z,24.10
2023-09-08T09:10:47.027Z,24.24
2023-09-08T09:13:14.344Z,24.31
2023-09-08T09:15:41.681Z,24.48
2023-09-08T09:18:09.619Z,24.62
2023-09-08T09:20:37.295Z,24.70
2023-09-08T09:23:04.849Z,24.71
2023-09-08T09:25:32.962Z,24.79
2023-09-08T09:28:02.412Z,24.91
2023-09-08T09:30:48.064Z,24.96
2023-09-08T09:33:15.832Z,25.11
2023-09-08T09:35:47.918Z,25.27
2023-09-08T09:38:15.704Z,25.36
2023-09-08T09:40:42.894Z,25.43
2023-09-08T09:43:12.774Z,25.55
2023-09-08T09:45:41.423Z,25.57
2023-09-08T09:48:10.187Z,25.61
2023-09-08T09:50:44.470Z,25.73
2023-09-08T09:53:14.230Z,25.84
2023-09-08T09:55:43.060Z,26.07
2023-09-08T09:58:11.996Z,26.24
2023-09-08T10:00:42.608Z,26.31
2023-09-08T10:03:12.074Z,26.43
2023-09-08T10:05:39.289Z,26.50
2023-09-08T10:08:07.092Z,26.54
2023-09-08T10:10:37.624Z,26.60
2023-09-08T10:13:07.925Z,26.85
2023-09-08T10:15:35.645Z,27.08
2023-09-08T10:18:06.452Z,27.61
2023-09-08T10:20:36.143Z,27.81
2023-09-08T10:23:17.013Z,28.17
2023-09-08T10:25:50.686Z,28.37
2023-09-08T10:28:18.814Z,28.49
2023-09-08T10:30:47.818Z,28.79
2023-09-08T10:33:16.539Z,29.23
2023-09-08T10:35:44.993Z,29.41
2023-09-08T10:38:29.929Z,29.61
2023-09-08T10:41:19.032Z,29.87
2023-09-08T10:43:47.206Z,30.07
2023-09-08T10:46:25.319Z,30.35
2023-09-08T10:48:56.033Z,30.35
2023-09-08T10:51:25.399Z,30.29
2023-09-08T10:53:52.600Z,30.51
2023-09-08T10:56:19.995Z,30.60
2023-09-08T10:58:53.596Z,30.56
2023-09-08T11:01:28.556Z,30.72
2023-09-08T11:03:56.243Z,30.78
2023-09-08T11:06:23.822Z,31.11
2023-09-08T11:08:56.969Z,31.32
2023-09-08T11:11:24.553Z,31.54
2023-09-08T11:13:52.066Z,31.53
2023-09-08T11:16:24.290Z,31.65
2023-09-08T11:18:52.758Z,31.84
2023-09-08T11:21:20.140Z,32.23
2023-09-08T11:23:47.486Z,32.48
2023-09-08T11:26:15.023Z,32.46
2023-09-08T11:28:46.482Z,32.41
2023-09-08T11:31:14.070Z,32.44
2023-09-08T11:33:41.546Z,32.51
2023-09-08T11:36:15.624Z,32.92
2023-09-08T11:38:46.540Z,33.02
2023-09-08T11:41:14.239Z,33.01
2023-09-08T11:43:41.784Z,33.07
2023-09-08T11:46:09.312Z,33.23
2023-09-08T11:48:37.107Z,33.83
2023-09-08T11:51:04.439Z,33.77
2023-09-08T11:53:34.717Z,34.13
2023-09-08T11:56:02.095Z,34.82
2023-09-08T11:58:30.571Z,34.99
2023-09-08T12:00:58.955Z,34.93
2023-09-08T12:03:26.287Z,35.01
2023-09-08T12:05:54.147Z,35.22
2023-09-08T12:08:21.559Z,35.19
2023-09-08T12:10:48.839Z,34.57
2023-09-08T12:13:22.474Z,35.05
2023-09-08T12:15:49.978Z,35.06
2023-09-08T12:18:17.942Z,35.47
2023-09-08T12:20:45.986Z,35.91
2023-09-08T12:23:21.501Z,35.75
2023-09-08T12:25:53.458Z,36.48
2023-09-08T12:28:22.496Z,36.84
2023-09-08T12:30:54.720Z,36.51
2023-09-08T12:33:23.715Z,36.71
2023-09-08T12:35:52.535Z,36.79
2023-09-08T12:38:20.084Z,37.18
2023-09-08T12:40:47.374Z,37.04
2023-09-08T12:43:24.452Z,37.97
2023-09-08T12:45:58.262Z,37.79
2023-09-08T12:48:26.437Z,38.13
2023-09-08T12:50:53.828Z,37.69
2023-09-08T12:53:21.778Z,37.35
2023-09-08T12:55:49.445Z,37.18
2023-09-08T12:58:17.654Z,37.94
2023-09-08T13:00:45.607Z,38.55
2023-09-08T13:03:13.023Z,38.70
2023-09-08T13:05:40.744Z,38.64
2023-09-08T13:08:08.279Z,38.17
2023-09-08T13:10:35.658Z,38.19
2023-09-08T13:13:03.035Z,38.43
2023-09-08T13:15:30.474Z,38.52
2023-09-08T13:17:58.216Z,38.94
2023-09-08T13:20:25.465Z,39.43
2023-09-08T13:22:52.934Z,39.59
2023-09-08T13:25:20.589Z,40.03
2023-09-08T13:27:49.527Z,39.13
2023-09-08T13:30:17.598Z,38.57
2023-09-08T13:32:46.214Z,38.57
2023-09-08T13:35:13.975Z,38.86
2023-09-08T13:37:41.503Z,39.43
2023-09-08T13:40:10.110Z,40.46
2023-09-08T13:42:38.089Z,40.40
2023-09-08T13:45:06.471Z,40.62
2023-09-08T13:47:34.519Z,40.47
2023-09-08T13:50:03.471Z,40.46
2023-09-08T13:52:37.389Z,40.62
2023-09-08T13:57:41.473Z,40.39
2023-09-08T14:00:16.385Z,40.40
2023-09-08T14:05:19.122Z,40.59
2023-09-08T14:07:55.129Z,41.06
2023-09-08T14:12:55.083Z,41.47
2023-09-08T14:15:22.851Z,41.07
2023-09-08T14:17:50.562Z,41.28
2023-09-08T14:20:17.945Z,40.91
2023-09-08T14:22:45.430Z,40.93
2023-09-08T14:25:12.824Z,40.81
2023-09-08T14:27:40.181Z,41.56
2023-09-08T14:30:08.042Z,41.63
2023-09-08T14:32:35.401Z,42.00
2023-09-08T14:35:02.757Z,41.40
2023-09-08T14:37:29.957Z,40.67
2023-09-08T14:39:57.110Z,41.00
2023-09-08T14:42:24.409Z,41.49
2023-09-08T14:44:52.801Z,41.13
2023-09-08T14:47:20.283Z,41.21
2023-09-08T14:49:47.761Z,41.37
2023-09-08T14:52:15.045Z,40.47
2023-09-08T14:54:42.354Z,41.19
2023-09-08T14:57:09.843Z,40.73
2023-09-08T14:59:37.400Z,41.18
2023-09-08T15:02:05.069Z,40.51
2023-09-08T15:04:32.323Z,40.63
2023-09-08T15:06:59.718Z,41.20
2023-09-08T15:09:27.262Z,41.28
2023-09-08T15:11:54.493Z,39.42
2023-09-08T15:14:21.753Z,40.13
2023-09-08T15:16:49.079Z,40.00
2023-09-08T15:19:16.376Z,40.17
2023-09-08T15:21:43.622Z,40.09
2023-09-08T15:24:11.001Z,40.27
2023-09-08T15:26:38.360Z,39.45
2023-09-08T15:29:06.449Z,39.10
2023-09-08T15:31:33.903Z,38.96
2023-09-08T15:34:01.299Z,38.99
2023-09-08T15:36:28.662Z,39.40
2023-09-08T15:38:55.912Z,39.91
2023-09-08T15:41:43.293Z,40.27
2023-09-08T15:44:14.750Z,40.06
2023-09-08T15:46:42.984Z,39.82
2023-09-08T15:49:10.409Z,40.20
2023-09-08T15:51:38.009Z,39.71
2023-09-08T15:54:07.296Z,39.88
2023-09-08T15:56:34.661Z,38.99
2023-09-08T15:59:01.897Z,39.29
2023-09-08T16:01:29.250Z,39.59
2023-09-08T16:03:56.593Z,39.15
2023-09-08T16:06:25.532Z,37.58
2023-09-08T16:08:52.901Z,36.95
2023-09-08T16:11:20.231Z,36.09
2023-09-08T16:13:47.517Z,35.16
2023-09-08T16:16:14.826Z,34.44
2023-09-08T16:18:42.238Z,33.56
2023-09-08T16:21:09.577Z,32.61
2023-09-08T16:23:37.139Z,32.37
2023-09-08T16:26:06.009Z,32.04
2023-09-08T16:28:35.933Z,31.46
2023-09-08T16:31:07.314Z,31.16
2023-09-08T16:33:37.962Z,30.77
2023-09-08T16:36:05.801Z,30.69
2023-09-08T16:38:35.746Z,30.41
2023-09-08T16:41:03.089Z,30.22
2023-09-08T16:43:30.342Z,30.21
2023-09-08T16:45:57.611Z,29.92
2023-09-08T16:48:25.587Z,29.72
2023-09-08T16:50:52.932Z,29.51
2023-09-08T16:53:21.066Z,29.47
2023-09-08T16:55:48.671Z,29.46
2023-09-08T16:58:15.959Z,29.39
2023-09-08T17:00:43.162Z,29.34
2023-09-08T17:03:11.231Z,29.15
2023-09-08T17:05:39.842Z,29.00
2023-09-08T17:08:08.221Z,28.89
2023-09-08T17:10:36.554Z,28.82
2023-09-08T17:13:03.983Z,28.74
2023-09-08T17:15:31.224Z,28.59
2023-09-08T17:17:58.525Z,28.47
2023-09-08T17:20:27.215Z,28.25
2023-09-08T17:22:54.849Z,28.22
2023-09-08T17:25:22.429Z,28.20
2023-09-08T17:27:49.957Z,28.11
2023-09-08T17:30:17.248Z,28.01
2023-09-08T17:32:44.632Z,27.81
2023-09-08T17:35:11.942Z,27.84
2023-09-08T17:37:39.380Z,27.68
2023-09-08T17:40:07.942Z,27.61
2023-09-08T17:42:35.244Z,27.56
2023-09-08T17:45:05.216Z,27.52
2023-09-08T17:47:32.509Z,27.49
2023-09-08T17:49:59.807Z,27.47
2023-09-08T17:52:27.155Z,27.32
2023-09-08T17:54:54.389Z,27.27
2023-09-08T17:57:21.558Z,27.15
2023-09-08T17:59:48.950Z,27.12
2023-09-08T18:02:16.192Z,26.99
2023-09-08T18:04:43.539Z,26.79
2023-09-08T18:07:10.977Z,26.79
2023-09-08T18:09:38.373Z,26.70
2023-09-08T18:12:26.590Z,26.52
2023-09-08T18:14:54.827Z,26.42
2023-09-08T18:17:22.556Z,26.27
2023-09-08T18:19:50.376Z,26.26
2023-09-08T18:22:17.889Z,26.15
2023-09-08T18:24:45.218Z,26.22
2023-09-08T18:27:12.374Z,26.23
2023-09-08T18:29:39.606Z,26.21
2023-09-08T18:32:06.994Z,26.10
2023-09-08T18:34:34.822Z,26.10
2023-09-08T18:37:02.070Z,26.04
2023-09-08T18:39:29.257Z,26.00
2023-09-08T18:41:57.003Z,25.91
2023-09-08T18:44:24.319Z,25.73
2023-09-08T18:46:51.693Z,25.63
2023-09-08T18:49:20.464Z,25.63
2023-09-08T18:51:47.796Z,25.58
2023-09-08T18:54:15.134Z,25.53
2023-09-08T18:56:42.375Z,25.45
2023-09-08T18:59:09.729Z,25.40
2023-09-08T19:01:36.948Z,25.24
2023-09-08T19:04:05.104Z,25.16
2023-09-08T19:06:32.689Z,25.01
2023-09-08T19:09:01.809Z,25.05
2023-09-08T19:11:29.493Z,24.94
2023-09-08T19:13:56.966Z,24.82
2023-09-08T19:16:24.235Z,24.70
2023-09-08T19:18:51.775Z,24.55
2023-09-08T19:21:19.029Z,24.52
2023-09-08T19:23:46.284Z,24.33
2023-09-08T19:26:13.552Z,24.35
2023-09-08T19:28:41.032Z,24.33
2023-09-08T19:31:08.276Z,24.24
2023-09-08T19:33:36.640Z,24.16
2023-09-08T19:36:04.236Z,24.10
2023-09-08T19:38:32.426Z,24.03
2023-09-08T19:41:04.037Z,23.99
2023-09-08T19:43:32.227Z,24.00
2023-09-08T19:46:06.543Z,23.86
2023-09-08T19:48:35.381Z,23.71
2023-09-08T19:51:04.404Z,23.69
2023-09-08T19:53:32.032Z,23.68
2023-09-08T19:55:59.437Z,23.62
2023-09-08T19:58:30.886Z,23.61
2023-09-08T20:01:10.475Z,23.58
2023-09-08T20:03:41.654Z,23.44
2023-09-08T20:06:13.454Z,23.34
2023-09-08T20:08:40.736Z,23.24
2023-09-08T20:11:08.617Z,23.18
2023-09-08T20:13:38.548Z,23.13
2023-09-08T20:16:08.261Z,23.08
2023-09-08T20:18:36.987Z,23.06
2023-09-08T20:21:06.337Z,23.00
2023-09-08T20:23:35.999Z,23.00
2023-09-08T20:26:04.277Z,22.87
2023-09-08T20:28:33.301Z,22.89
2023-09-08T20:31:15.800Z,22.86
2023-09-08T20:33:44.940Z,22.82
2023-09-08T20:36:13.205Z,22.83
2023-09-08T20:38:40.918Z,22.85
2023-09-08T20:41:11.052Z,22.76
2023-09-08T20:43:39.163Z,22.72
2023-09-08T20:46:07.443Z,22.66
2023-09-08T20:48:37.393Z,22.64
2023-09-08T20:51:12.683Z,22.53
2023-09-08T20:53:42.104Z,22.53
2023-09-08T20:56:11.189Z,22.51
2023-09-08T20:58:40.860Z,22.51
2023-09-08T21:01:08.832Z,22.51
2023-09-08T21:03:37.307Z,22.41
2023-09-08T21:06:05.075Z,22.38
2023-09-08T21:08:32.496Z,22.37
2023-09-08T21:10:59.819Z,22.32
2023-09-08T21:13:27.698Z,22.33
2023-09-08T21:15:55.150Z,22.24
2023-09-08T21:18:22.964Z,22.20
2023-09-08T21:20:50.368Z,22.14
2023-09-08T21:23:18.343Z,22.07
2023-09-08T21:25:45.808Z,22.04
2023-09-08T21:28:13.141Z,22.03
2023-09-08T21:30:40.758Z,21.99
2023-09-08T21:33:08.084Z,21.93
2023-09-08T21:35:35.524Z,21.93
2023-09-08T21:38:02.798Z,21.83
2023-09-08T21:40:30.202Z,21.83
2023-09-08T21:42:58.112Z,21.80
2023-09-08T21:45:25.407Z,21.80
2023-09-08T21:47:53.717Z,21.71
2023-09-08T21:50:23.094Z,21.60
2023-09-08T21:52:53.734Z,21.60
2023-09-08T21:55:22.665Z,21.55
2023-09-08T21:57:50.060Z,21.45
2023-09-08T22:00:18.304Z,21.52
2023-09-08T22:02:45.841Z,21.49
2023-09-08T22:05:13.806Z,21.45
2023-09-08T22:07:41.289Z,21.41
2023-09-08T22:10:09.029Z,21.35
2023-09-08T22:12:36.464Z,21.31
2023-09-08T22:15:04.559Z,21.22
2023-09-08T22:17:33.428Z,21.19
2023-09-08T22:20:14.010Z,21.13
2023-09-08T22:22:42.268Z,21.05
2023-09-08T22:25:11.505Z,21.10
2023-09-08T22:27:39.404Z,21.06
2023-09-08T22:30:27.222Z,21.02
2023-09-08T22:32:54.552Z,20.98
2023-09-08T22:35:21.800Z,20.97
2023-09-08T22:37:50.757Z,20.87
2023-09-08T22:40:19.831Z,20.84
2023-09-08T22:42:47.124Z,20.84
2023-09-08T22:45:14.421Z,20.77
2023-09-08T22:47:41.616Z,20.72
2023-09-08T22:50:10.820Z,20.71
2023-09-08T22:52:41.445Z,20.65
2023-09-08T22:55:23.528Z,20.58
2023-09-08T22:57:52.433Z,20.54
2023-09-08T23:00:20.050Z,20.45
2023-09-08T23:02:48.350Z,20.45
2023-09-08T23:05:15.929Z,20.46
2023-09-08T23:07:44.197Z,20.41
2023-09-08T23:10:11.654Z,20.40
2023-09-08T23:12:39.172Z,20.35
2023-09-08T23:15:07.964Z,20.32
2023-09-08T23:17:35.479Z,20.37
2023-09-08T23:20:08.336Z,20.28
2023-09-08T23:22:36.683Z,20.28
2023-09-08T23:25:07.219Z,20.26
2023-09-08T23:27:34.737Z,20.19
2023-09-08T23:30:02.195Z,20.22
2023-09-08T23:32:29.619Z,20.12
2023-09-08T23:34:57.067Z,20.13
2023-09-08T23:37:24.452Z,20.14
2023-09-08T23:39:51.674Z,20.10
2023-09-08T23:42:18.925Z,20.04
2023-09-08T23:44:46.056Z,19.96
2023-09-08T23:47:14.140Z,19.94
2023-09-08T23:49:41.600Z,19.89
2023-09-08T23:52:08.759Z,19.88
2023-09-08T23:54:36.037Z,19.81
2023-09-08T23:57:05.431Z,19.80
2023-09-08T23:59:32.791Z,19.74
